createdAt,value
2022-09-17T00:00:28.933Z,91.42
2022-09-17T00:01:36.161Z,91.19
2022-09-17T00:02:49.193Z,90.54
2022-09-17T00:03:56.248Z,90.63
2022-09-17T00:05:00.648Z,90.82
2022-09-17T00:06:08.028Z,90.66
2022-09-17T00:07:12.199Z,90.50
2022-09-17T00:08:27.101Z,90.15
2022-09-17T00:09:32.396Z,90.59
2022-09-17T00:11:06.669Z,90.24
2022-09-17T00:12:12.675Z,90.70
2022-09-17T00:13:16.646Z,90.81
2022-09-17T00:14:21.874Z,90.20
2022-09-17T00:15:31.803Z,90.55
2022-09-17T00:16:40.537Z,90.54
2022-09-17T00:17:44.738Z,90.99
2022-09-17T00:18:50.536Z,90.76
2022-09-17T00:19:58.428Z,90.46
2022-09-17T00:21:03.865Z,90.54
2022-09-17T00:22:14.901Z,90.85
2022-09-17T00:23:21.880Z,90.92
2022-09-17T00:24:26.886Z,90.68
2022-09-17T00:25:31.888Z,91.36
2022-09-17T00:26:38.008Z,91.83
2022-09-17T00:27:44.449Z,92.25
2022-09-17T00:28:53.522Z,92.18
2022-09-17T00:29:57.413Z,92.58
2022-09-17T00:31:02.750Z,93.13
2022-09-17T00:32:09.034Z,94.31
2022-09-17T00:33:17.826Z,94.21
2022-09-17T00:34:27.896Z,95.09
2022-09-17T00:36:27.006Z,94.07
2022-09-17T00:37:33.735Z,94.13
2022-09-17T00:38:37.585Z,93.49
2022-09-17T00:39:42.782Z,93.17
2022-09-17T00:40:47.028Z,93.59
2022-09-17T00:42:11.334Z,93.78
2022-09-17T00:43:16.128Z,93.63
2022-09-17T00:44:46.613Z,92.88
2022-09-17T00:45:53.859Z,93.18
2022-09-17T00:47:04.989Z,93.26
2022-09-17T00:48:18.637Z,92.80
2022-09-17T00:49:33.958Z,92.61
2022-09-17T00:50:54.615Z,92.33
2022-09-17T00:52:04.291Z,92.66
2022-09-17T00:53:22.258Z,92.61
2022-09-17T00:54:30.111Z,92.26
2022-09-17T00:55:38.397Z,92.81
2022-09-17T00:56:45.806Z,92.82
2022-09-17T00:58:28.896Z,93.11
2022-09-17T00:59:36.317Z,92.96
2022-09-17T01:00:46.214Z,93.27
2022-09-17T01:01:50.708Z,92.19
2022-09-17T01:02:56.735Z,92.31
2022-09-17T01:04:11.717Z,91.75
2022-09-17T01:05:25.240Z,92.04
2022-09-17T01:06:33.857Z,92.07
2022-09-17T01:08:02.943Z,91.40
2022-09-17T01:09:41.189Z,91.65
2022-09-17T01:11:14.735Z,91.74
2022-09-17T01:12:45.489Z,91.77
2022-09-17T01:14:09.614Z,92.16
2022-09-17T01:17:20.059Z,92.23
2022-09-17T01:19:26.008Z,92.01
2022-09-17T01:21:06.511Z,91.73
2022-09-17T01:22:16.366Z,91.15
2022-09-17T01:24:03.249Z,91.49
2022-09-17T01:25:25.437Z,91.71
2022-09-17T01:26:58.025Z,92.10
2022-09-17T01:28:30.417Z,92.12
2022-09-17T01:31:38.207Z,92.03
2022-09-17T01:32:58.687Z,91.75
2022-09-17T01:34:24.253Z,91.53
2022-09-17T01:38:07.091Z,91.23
2022-09-17T01:39:20.547Z,90.99
2022-09-17T01:40:32.863Z,90.88
2022-09-17T01:41:44.527Z,91.05
2022-09-17T01:42:53.210Z,90.69
2022-09-17T01:44:14.253Z,90.43
2022-09-17T01:45:36.919Z,90.76
2022-09-17T01:46:45.693Z,90.62
2022-09-17T01:50:48.646Z,90.97
2022-09-17T01:52:18.496Z,91.19
2022-09-17T01:53:33.195Z,91.37
2022-09-17T01:55:08.145Z,90.87
2022-09-17T01:56:28.907Z,90.81
2022-09-17T01:58:24.954Z,90.69
2022-09-17T01:59:35.872Z,90.84
2022-09-17T02:00:55.795Z,90.89
2022-09-17T02:02:10.838Z,91.15
2022-09-17T02:03:20.689Z,91.13
2022-09-17T02:04:28.437Z,90.78
2022-09-17T02:05:37.111Z,90.75
2022-09-17T02:06:48.835Z,91.00
2022-09-17T02:07:58.267Z,91.10
2022-09-17T02:09:06.410Z,91.18
2022-09-17T02:10:50.281Z,91.00
2022-09-17T02:12:01.568Z,90.81
2022-09-17T02:13:11.355Z,90.79
2022-09-17T02:15:49.136Z,90.72
2022-09-17T02:16:57.518Z,90.73
2022-09-17T02:18:09.687Z,90.43
2022-09-17T02:19:30.189Z,90.41
2022-09-17T02:21:06.088Z,90.37
2022-09-17T02:22:24.170Z,90.04
2022-09-17T02:23:33.646Z,90.17
2022-09-17T02:24:45.296Z,89.79
2022-09-17T02:26:00.425Z,89.53
2022-09-17T02:27:08.227Z,90.19
2022-09-17T02:28:39.864Z,89.80
2022-09-17T02:29:53.408Z,90.20
2022-09-17T02:32:51.975Z,90.86
2022-09-17T02:34:28.178Z,90.83
2022-09-17T02:35:39.609Z,90.59
2022-09-17T02:36:48.367Z,90.15
2022-09-17T02:37:54.577Z,89.93
2022-09-17T02:39:14.651Z,90.33
2022-09-17T02:40:23.729Z,90.54
2022-09-17T02:42:00.276Z,90.48
2022-09-17T02:43:13.349Z,90.38
2022-09-17T02:44:29.076Z,90.17
2022-09-17T02:45:52.886Z,90.06
2022-09-17T02:47:44.229Z,90.15
2022-09-17T02:49:04.975Z,90.31
2022-09-17T02:50:29.115Z,90.58
2022-09-17T02:52:08.450Z,90.12
2022-09-17T02:53:38.785Z,90.21
2022-09-17T02:54:49.410Z,89.89
2022-09-17T02:56:03.737Z,89.89
2022-09-17T02:57:27.573Z,89.95
2022-09-17T02:58:34.910Z,90.06
2022-09-17T02:59:54.149Z,90.03
2022-09-17T03:01:02.907Z,89.91
2022-09-17T03:02:13.820Z,90.14
2022-09-17T03:03:22.096Z,90.01
2022-09-17T03:04:29.677Z,89.96
2022-09-17T03:05:39.528Z,89.78
2022-09-17T03:06:50.823Z,89.95
2022-09-17T03:07:56.666Z,89.75
2022-09-17T03:09:11.978Z,89.97
2022-09-17T03:10:24.136Z,89.84
2022-09-17T03:11:28.179Z,89.48
2022-09-17T03:12:33.481Z,89.61
2022-09-17T03:13:40.337Z,89.85
2022-09-17T03:15:18.334Z,89.79
2022-09-17T03:16:52.381Z,89.53
2022-09-17T03:18:12.566Z,89.99
2022-09-17T03:19:16.198Z,89.86
2022-09-17T03:20:20.839Z,89.82
2022-09-17T03:21:26.606Z,89.83
2022-09-17T03:22:56.220Z,89.83
2022-09-17T03:24:03.417Z,89.76
2022-09-17T03:25:08.621Z,89.33
2022-09-17T03:26:12.219Z,89.71
2022-09-17T03:27:17.126Z,89.60
2022-09-17T03:28:20.645Z,90.11
2022-09-17T03:29:26.067Z,90.17
2022-09-17T03:30:30.891Z,90.74
2022-09-17T03:31:34.936Z,90.60
2022-09-17T03:32:39.764Z,90.42
2022-09-17T03:33:43.312Z,90.76
2022-09-17T03:34:48.520Z,90.88
2022-09-17T03:35:55.014Z,90.92
2022-09-17T03:37:01.581Z,90.94
2022-09-17T03:38:05.900Z,90.92
2022-09-17T03:39:14.084Z,91.42
2022-09-17T03:40:33.238Z,91.41
2022-09-17T03:41:38.266Z,90.95
2022-09-17T03:42:42.024Z,90.94
2022-09-17T03:43:47.209Z,90.90
2022-09-17T03:44:50.999Z,91.08
2022-09-17T03:45:55.552Z,91.08
2022-09-17T03:46:58.814Z,91.18
2022-09-17T03:48:03.587Z,91.07
2022-09-17T03:49:06.877Z,91.14
2022-09-17T03:50:11.450Z,90.96
2022-09-17T03:51:14.756Z,90.64
2022-09-17T03:52:20.729Z,90.82
2022-09-17T03:53:23.886Z,90.48
2022-09-17T03:54:28.080Z,90.24
2022-09-17T03:55:31.347Z,90.24
2022-09-17T03:56:35.569Z,90.51
2022-09-17T03:57:38.806Z,90.41
2022-09-17T03:58:43.158Z,90.11
2022-09-17T03:59:46.515Z,90.25
2022-09-17T04:00:53.583Z,90.53
2022-09-17T04:01:56.926Z,90.56
2022-09-17T04:03:01.373Z,90.51
2022-09-17T04:04:04.627Z,90.54
2022-09-17T04:05:12.093Z,90.35
2022-09-17T04:06:15.560Z,90.17
2022-09-17T04:07:21.458Z,90.02
2022-09-17T04:08:24.868Z,89.95
2022-09-17T04:09:29.981Z,89.78
2022-09-17T04:10:33.280Z,90.30
2022-09-17T04:11:37.707Z,90.17
2022-09-17T04:12:41.112Z,90.40
2022-09-17T04:13:45.449Z,90.18
2022-09-17T04:14:48.567Z,90.18
2022-09-17T04:15:53.543Z,90.32
2022-09-17T04:16:56.921Z,90.27
2022-09-17T04:18:01.212Z,90.65
2022-09-17T04:19:04.960Z,90.11
2022-09-17T04:20:09.635Z,90.62
2022-09-17T04:21:12.799Z,90.54
2022-09-17T04:22:17.149Z,90.23
2022-09-17T04:23:21.728Z,90.93
2022-09-17T04:24:26.069Z,90.87
2022-09-17T04:25:29.460Z,90.38
2022-09-17T04:26:33.685Z,90.66
2022-09-17T04:27:36.945Z,90.62
2022-09-17T04:28:41.538Z,90.64
2022-09-17T04:29:44.647Z,90.88
2022-09-17T04:30:50.282Z,90.90
2022-09-17T04:31:53.879Z,91.27
2022-09-17T04:32:58.107Z,90.72
2022-09-17T04:34:01.291Z,90.98
2022-09-17T04:35:06.209Z,91.27
2022-09-17T04:36:09.474Z,91.25
2022-09-17T04:37:13.816Z,91.14
2022-09-17T04:38:18.880Z,91.53
2022-09-17T04:39:24.678Z,91.85
2022-09-17T04:40:29.147Z,91.99
2022-09-17T04:41:33.837Z,92.00
2022-09-17T04:42:37.111Z,91.82
2022-09-17T04:43:44.494Z,91.91
2022-09-17T04:44:47.916Z,91.89
2022-09-17T04:45:52.244Z,92.05
2022-09-17T04:46:56.028Z,92.27
2022-09-17T04:48:00.913Z,92.17
2022-09-17T04:49:04.593Z,92.76
2022-09-17T04:50:09.689Z,92.89
2022-09-17T04:51:13.289Z,93.42
2022-09-17T04:52:17.842Z,93.50
2022-09-17T04:53:21.204Z,93.68
2022-09-17T04:54:27.107Z,93.66
2022-09-17T04:55:31.518Z,93.99
2022-09-17T04:56:35.893Z,94.33
2022-09-17T04:57:39.327Z,94.49
2022-09-17T04:58:43.723Z,94.70
2022-09-17T04:59:47.967Z,94.75
2022-09-17T05:00:52.652Z,94.97
2022-09-17T05:01:56.037Z,95.02
2022-09-17T05:03:00.427Z,95.47
2022-09-17T05:04:04.856Z,95.82
2022-09-17T05:05:10.209Z,95.81
2022-09-17T05:06:13.682Z,96.08
2022-09-17T05:07:18.394Z,96.17
2022-09-17T05:08:24.059Z,96.59
2022-09-17T05:09:30.289Z,96.67
2022-09-17T05:10:33.795Z,97.13
2022-09-17T05:11:41.566Z,97.01
2022-09-17T05:12:49.167Z,97.20
2022-09-17T05:13:53.885Z,97.61
2022-09-17T05:14:57.355Z,97.56
2022-09-17T05:16:01.938Z,97.64
2022-09-17T05:17:05.347Z,97.87
2022-09-17T05:18:09.966Z,98.57
2022-09-17T05:19:13.684Z,99.02
2022-09-17T05:20:19.295Z,98.83
2022-09-17T05:21:22.687Z,99.00
2022-09-17T05:22:27.128Z,99.61
2022-09-17T05:23:30.425Z,100.00
2022-09-17T05:24:39.527Z,100.00
2022-09-17T05:25:43.881Z,100.00
2022-09-17T05:26:47.217Z,100.00
2022-09-17T05:27:51.681Z,100.00
2022-09-17T05:28:54.886Z,100.00
2022-09-17T05:29:59.229Z,100.00
2022-09-17T05:31:03.342Z,100.00
2022-09-17T05:32:08.024Z,100.00
2022-09-17T05:33:11.197Z,100.00
2022-09-17T05:34:15.540Z,100.00
2022-09-17T05:35:18.887Z,100.00
2022-09-17T05:36:23.144Z,100.00
2022-09-17T05:37:26.425Z,100.00
2022-09-17T05:38:30.937Z,100.00
2022-09-17T05:39:35.993Z,100.00
2022-09-17T05:40:40.411Z,100.00
2022-09-17T05:41:43.575Z,100.00
2022-09-17T05:42:47.846Z,100.00
2022-09-17T05:43:51.468Z,100.00
2022-09-17T05:44:55.519Z,100.00
2022-09-17T05:46:02.342Z,100.00
2022-09-17T05:47:07.085Z,100.00
2022-09-17T05:48:13.329Z,100.00
2022-09-17T05:49:17.798Z,100.00
2022-09-17T05:50:21.168Z,100.00
2022-09-17T05:51:25.538Z,100.00
2022-09-17T05:52:29.219Z,100.00
2022-09-17T05:53:33.867Z,100.00
2022-09-17T05:54:38.909Z,100.00
2022-09-17T05:55:43.502Z,100.00
2022-09-17T05:56:46.689Z,100.00
2022-09-17T05:57:50.995Z,100.00
2022-09-17T05:58:56.577Z,100.00
2022-09-17T06:00:01.040Z,100.00
2022-09-17T06:01:04.676Z,100.00
2022-09-17T06:02:21.624Z,100.00
2022-09-17T06:03:25.002Z,100.00
2022-09-17T06:04:48.007Z,100.00
2022-09-17T06:06:11.638Z,100.00
2022-09-17T06:07:36.904Z,100.00
2022-09-17T06:09:00.117Z,100.00
2022-09-17T06:10:24.616Z,100.00
2022-09-17T06:11:47.349Z,100.00
2022-09-17T06:13:09.643Z,100.00
2022-09-17T06:14:32.395Z,100.00
2022-09-17T06:15:55.162Z,100.00
2022-09-17T06:17:21.572Z,100.00
2022-09-17T06:18:44.816Z,100.00
2022-09-17T06:20:08.538Z,100.00
2022-09-17T06:21:32.106Z,100.00
2022-09-17T06:23:13.932Z,100.00
2022-09-17T06:24:38.494Z,100.00
2022-09-17T06:26:03.824Z,100.00
2022-09-17T06:27:26.687Z,100.00
2022-09-17T06:28:49.227Z,100.00
2022-09-17T06:30:11.316Z,100.00
2022-09-17T06:31:34.047Z,100.00
2022-09-17T06:32:55.315Z,100.00
2022-09-17T06:34:17.939Z,100.00
2022-09-17T06:35:39.264Z,100.00
2022-09-17T06:37:02.109Z,100.00
2022-09-17T06:38:23.590Z,100.00
2022-09-17T06:39:46.023Z,100.00
2022-09-17T06:41:09.761Z,100.00
2022-09-17T06:42:32.505Z,100.00
2022-09-17T06:43:55.525Z,100.00
2022-09-17T06:45:17.626Z,100.00
2022-09-17T06:46:44.494Z,100.00
2022-09-17T06:48:07.811Z,100.00
2022-09-17T06:49:31.375Z,100.00
2022-09-17T06:50:54.586Z,100.00
2022-09-17T06:52:17.148Z,100.00
2022-09-17T06:53:39.664Z,100.00
2022-09-17T06:55:00.920Z,100.00
2022-09-17T06:56:24.804Z,100.00
2022-09-17T06:57:47.072Z,100.00
2022-09-17T06:59:09.678Z,100.00
2022-09-17T07:00:31.696Z,100.00
2022-09-17T07:01:54.044Z,100.00
2022-09-17T07:03:18.038Z,100.00
2022-09-17T07:04:45.056Z,100.00
2022-09-17T07:06:10.936Z,100.00
2022-09-17T07:07:35.233Z,100.00
2022-09-17T07:08:57.598Z,100.00
2022-09-17T07:10:19.156Z,100.00
2022-09-17T07:11:43.320Z,100.00
2022-09-17T07:13:04.599Z,100.00
2022-09-17T07:14:27.015Z,100.00
2022-09-17T07:15:54.346Z,100.00
2022-09-17T07:17:16.726Z,100.00
2022-09-17T07:18:40.218Z,100.00
2022-09-17T07:20:02.934Z,100.00
2022-09-17T07:21:25.405Z,100.00
2022-09-17T07:22:47.940Z,100.00
2022-09-17T07:24:10.681Z,100.00
2022-09-17T07:25:31.996Z,100.00
2022-09-17T07:26:56.244Z,100.00
2022-09-17T07:28:17.708Z,99.71
2022-09-17T07:29:41.672Z,100.00
2022-09-17T07:31:05.610Z,100.00
2022-09-17T07:32:26.804Z,100.00
2022-09-17T07:33:49.193Z,100.00
2022-09-17T07:35:11.867Z,98.25
2022-09-17T07:36:34.392Z,98.19
2022-09-17T07:37:55.785Z,95.75
2022-09-17T07:39:18.356Z,96.04
2022-09-17T07:40:40.474Z,94.79
2022-09-17T07:42:05.039Z,95.25
2022-09-17T07:43:27.167Z,95.18
2022-09-17T07:44:49.619Z,93.22
2022-09-17T07:46:18.070Z,93.50
2022-09-17T07:47:45.686Z,92.68
2022-09-17T07:49:12.586Z,94.52
2022-09-17T07:50:39.405Z,93.96
2022-09-17T07:52:06.721Z,93.49
2022-09-17T07:53:33.302Z,93.45
2022-09-17T07:55:00.156Z,93.12
2022-09-17T07:56:27.779Z,92.72
2022-09-17T07:57:55.847Z,91.91
2022-09-17T07:59:22.806Z,90.94
2022-09-17T08:00:50.138Z,92.32
2022-09-17T08:02:18.706Z,92.13
2022-09-17T08:03:51.105Z,91.02
2022-09-17T08:05:17.641Z,88.05
2022-09-17T08:06:45.057Z,87.02
2022-09-17T08:08:11.948Z,85.94
2022-09-17T08:09:38.618Z,84.83
2022-09-17T08:11:06.075Z,83.78
2022-09-17T08:12:32.392Z,84.34
2022-09-17T08:14:01.243Z,84.13
2022-09-17T08:15:30.570Z,84.23
2022-09-17T08:16:53.864Z,83.75
2022-09-17T08:18:20.638Z,82.66
2022-09-17T08:19:43.241Z,80.38
2022-09-17T08:21:06.962Z,81.18
2022-09-17T08:22:35.097Z,81.38
2022-09-17T08:23:57.876Z,81.03
2022-09-17T08:25:19.187Z,80.04
2022-09-17T08:26:45.955Z,79.56
2022-09-17T08:28:07.660Z,80.25
2022-09-17T08:29:35.288Z,80.39
2022-09-17T08:31:03.136Z,79.80
2022-09-17T08:32:31.067Z,79.12
2022-09-17T08:33:52.782Z,79.76
2022-09-17T08:35:16.729Z,78.97
2022-09-17T08:36:39.919Z,78.53
2022-09-17T08:38:06.447Z,78.37
2022-09-17T08:39:33.226Z,77.28
2022-09-17T08:41:03.850Z,77.54
2022-09-17T08:42:30.283Z,78.33
2022-09-17T08:44:07.887Z,78.21
2022-09-17T08:45:35.953Z,76.82
2022-09-17T08:47:02.502Z,76.08
2022-09-17T08:48:27.226Z,76.47
2022-09-17T08:49:51.944Z,76.23
2022-09-17T08:51:29.027Z,74.74
2022-09-17T08:53:11.772Z,75.18
2022-09-17T08:54:38.279Z,74.00
2022-09-17T08:56:03.668Z,73.51
2022-09-17T08:57:37.476Z,72.73
2022-09-17T08:59:25.627Z,70.06
2022-09-17T09:00:52.623Z,72.49
2022-09-17T09:02:21.795Z,71.78
2022-09-17T09:04:05.628Z,72.03
2022-09-17T09:05:30.550Z,73.00
2022-09-17T09:07:01.605Z,71.83
2022-09-17T09:08:28.807Z,71.91
2022-09-17T09:10:04.346Z,71.28
2022-09-17T09:11:31.276Z,71.04
2022-09-17T09:12:58.386Z,71.41
2022-09-17T09:14:22.195Z,71.16
2022-09-17T09:15:53.986Z,71.44
2022-09-17T09:17:18.656Z,71.35
2022-09-17T09:18:42.315Z,71.18
2022-09-17T09:20:06.102Z,71.15
2022-09-17T09:21:38.205Z,70.73
2022-09-17T09:23:04.945Z,71.29
2022-09-17T09:24:27.564Z,71.87
2022-09-17T09:26:03.635Z,71.84
2022-09-17T09:27:31.279Z,71.73
2022-09-17T09:29:07.270Z,71.54
2022-09-17T09:30:34.326Z,71.95
2022-09-17T09:32:15.958Z,71.54
2022-09-17T09:33:48.058Z,71.90
2022-09-17T09:35:19.523Z,71.31
2022-09-17T09:36:41.972Z,71.32
2022-09-17T09:38:07.796Z,71.85
2022-09-17T09:39:42.569Z,72.26
2022-09-17T09:41:13.315Z,72.19
2022-09-17T09:42:37.513Z,72.61
2022-09-17T09:44:04.704Z,72.52
2022-09-17T09:45:40.595Z,72.24
2022-09-17T09:47:19.726Z,71.91
2022-09-17T09:48:50.960Z,72.38
2022-09-17T09:51:01.774Z,71.78
2022-09-17T09:52:37.984Z,72.32
2022-09-17T09:54:14.244Z,71.74
2022-09-17T09:55:56.294Z,71.61
2022-09-17T09:57:22.189Z,71.78
2022-09-17T09:58:48.820Z,71.65
2022-09-17T10:00:27.020Z,71.59
2022-09-17T10:01:49.688Z,71.84
2022-09-17T10:03:16.730Z,71.10
2022-09-17T10:04:43.177Z,70.75
2022-09-17T10:06:06.536Z,70.48
2022-09-17T10:07:29.075Z,71.19
2022-09-17T10:09:13.407Z,70.30
2022-09-17T10:10:42.836Z,71.15
2022-09-17T10:12:18.207Z,71.44
2022-09-17T10:13:41.845Z,71.41
2022-09-17T10:15:25.026Z,71.30
2022-09-17T10:16:46.297Z,71.29
2022-09-17T10:18:18.533Z,71.51
2022-09-17T10:19:40.022Z,71.32
2022-09-17T10:21:03.036Z,71.58
2022-09-17T10:22:27.291Z,71.76
2022-09-17T10:23:54.609Z,71.91
2022-09-17T10:25:33.360Z,71.81
2022-09-17T10:27:02.801Z,71.57
2022-09-17T10:28:33.660Z,71.91
2022-09-17T10:30:05.381Z,72.00
2022-09-17T10:31:48.537Z,71.26
2022-09-17T10:33:20.142Z,71.68
2022-09-17T10:34:43.415Z,71.46
2022-09-17T10:36:17.249Z,71.74
2022-09-17T10:37:45.992Z,71.45
2022-09-17T10:39:34.312Z,69.47
2022-09-17T10:41:14.726Z,69.91
2022-09-17T10:42:41.634Z,71.09
2022-09-17T10:44:20.261Z,71.22
2022-09-17T10:45:44.094Z,70.76
2022-09-17T10:47:09.535Z,71.00
2022-09-17T10:48:44.160Z,71.15
2022-09-17T10:50:19.179Z,71.01
2022-09-17T10:51:41.708Z,71.50
2022-09-17T10:53:04.958Z,71.00
2022-09-17T10:54:52.495Z,70.02
2022-09-17T10:56:18.466Z,69.80
2022-09-17T10:58:06.136Z,69.71
2022-09-17T10:59:46.561Z,70.14
2022-09-17T11:01:27.424Z,70.26
2022-09-17T11:03:24.926Z,70.54
2022-09-17T11:04:55.446Z,71.22
2022-09-17T11:06:40.265Z,70.99
2022-09-17T11:08:07.609Z,71.77
2022-09-17T11:09:45.498Z,72.08
2022-09-17T11:11:13.604Z,72.31
2022-09-17T11:12:43.618Z,72.59
2022-09-17T11:14:13.772Z,72.85
2022-09-17T11:15:53.207Z,72.66
2022-09-17T11:17:40.281Z,73.17
2022-09-17T11:19:16.474Z,73.41
2022-09-17T11:20:58.128Z,73.55
2022-09-17T11:22:24.414Z,73.65
2022-09-17T11:24:18.104Z,73.27
2022-09-17T11:25:48.887Z,73.83
2022-09-17T11:27:15.817Z,73.54
2022-09-17T11:28:53.957Z,73.48
2022-09-17T11:30:18.872Z,73.71
2022-09-17T11:31:49.955Z,73.59
2022-09-17T11:33:48.457Z,74.31
2022-09-17T11:35:16.780Z,74.42
2022-09-17T11:36:48.218Z,75.00
2022-09-17T11:38:15.406Z,75.39
2022-09-17T11:39:48.847Z,75.43
2022-09-17T11:41:18.494Z,76.01
2022-09-17T11:42:42.882Z,76.36
2022-09-17T11:44:09.473Z,76.34
2022-09-17T11:45:34.165Z,77.05
2022-09-17T11:46:59.289Z,77.27
2022-09-17T11:48:18.414Z,77.32
2022-09-17T11:49:39.242Z,77.19
2022-09-17T11:50:58.832Z,77.32
2022-09-17T11:52:22.087Z,77.74
2022-09-17T11:53:40.310Z,77.65
2022-09-17T11:55:04.609Z,77.78
2022-09-17T11:56:28.025Z,77.43
2022-09-17T11:57:49.127Z,77.26
2022-09-17T11:59:09.047Z,77.18
2022-09-17T12:00:31.673Z,77.03
2022-09-17T12:01:58.818Z,77.63
2022-09-17T12:03:18.393Z,77.40
2022-09-17T12:04:45.881Z,77.76
2022-09-17T12:06:11.078Z,77.72
2022-09-17T12:07:36.416Z,77.95
2022-09-17T12:08:59.014Z,77.64
2022-09-17T12:10:31.875Z,77.64
2022-09-17T12:12:00.705Z,77.60
2022-09-17T12:13:21.237Z,77.81
2022-09-17T12:14:46.953Z,77.49
2022-09-17T12:16:17.300Z,77.96
2022-09-17T12:17:38.412Z,77.79
2022-09-17T12:19:02.443Z,77.58
2022-09-17T12:20:28.815Z,77.55
2022-09-17T12:21:49.447Z,77.59
2022-09-17T12:23:12.424Z,77.96
2022-09-17T12:24:35.785Z,78.05
2022-09-17T12:26:04.366Z,78.51
2022-09-17T12:27:34.408Z,79.23
2022-09-17T12:29:01.279Z,79.69
2022-09-17T12:30:22.821Z,79.64
2022-09-17T12:31:42.059Z,80.34
2022-09-17T12:33:21.586Z,80.48
2022-09-17T12:34:52.109Z,80.30
2022-09-17T12:36:33.349Z,80.30
2022-09-17T12:37:56.017Z,79.94
2022-09-17T12:39:57.095Z,79.41
2022-09-17T12:41:20.486Z,79.90
2022-09-17T12:42:46.294Z,79.29
2022-09-17T12:44:20.267Z,78.68
2022-09-17T12:45:52.517Z,77.74
2022-09-17T12:47:39.036Z,77.84
2022-09-17T12:49:13.723Z,78.02
2022-09-17T12:50:43.718Z,77.53
2022-09-17T12:52:10.344Z,77.17
2022-09-17T12:53:29.465Z,77.14
2022-09-17T12:55:08.694Z,76.91
2022-09-17T12:56:37.356Z,76.42
2022-09-17T12:58:01.643Z,76.64
2022-09-17T12:59:20.625Z,76.22
2022-09-17T13:00:41.649Z,75.61
2022-09-17T13:02:00.362Z,75.24
2022-09-17T13:03:20.963Z,75.36
2022-09-17T13:05:02.214Z,74.21
2022-09-17T13:06:40.588Z,74.41
2022-09-17T13:08:09.720Z,74.40
2022-09-17T13:09:49.300Z,73.95
2022-09-17T13:11:18.054Z,73.36
2022-09-17T13:12:41.827Z,73.25
2022-09-17T13:14:10.957Z,73.17
2022-09-17T13:15:39.188Z,73.36
2022-09-17T13:16:58.228Z,73.53
2022-09-17T13:18:26.687Z,73.76
2022-09-17T13:19:49.468Z,74.23
2022-09-17T13:21:14.446Z,74.02
2022-09-17T13:22:46.070Z,73.82
2022-09-17T13:24:17.006Z,74.46
2022-09-17T13:25:34.336Z,74.85
2022-09-17T13:26:58.921Z,75.06
2022-09-17T13:28:16.015Z,75.37
2022-09-17T13:30:05.308Z,75.22
2022-09-17T13:31:49.009Z,75.50
2022-09-17T13:33:05.428Z,75.83
2022-09-17T13:34:32.769Z,75.75
2022-09-17T13:35:50.506Z,75.66
2022-09-17T13:37:05.541Z,75.22
2022-09-17T13:38:27.368Z,75.63
2022-09-17T13:39:46.942Z,75.69
2022-09-17T13:41:20.626Z,75.15
2022-09-17T13:42:48.043Z,75.22
2022-09-17T13:44:10.925Z,74.56
2022-09-17T13:45:28.640Z,74.59
2022-09-17T13:46:45.006Z,74.38
2022-09-17T13:48:11.354Z,74.20
2022-09-17T13:49:25.674Z,74.40
2022-09-17T13:50:52.116Z,74.35
2022-09-17T13:52:33.486Z,73.96
2022-09-17T13:53:55.825Z,74.09
2022-09-17T13:55:34.414Z,74.05
2022-09-17T13:57:09.766Z,74.28
2022-09-17T13:58:30.737Z,74.12
2022-09-17T13:59:59.734Z,73.97
2022-09-17T14:01:56.927Z,74.26
2022-09-17T14:03:51.258Z,74.27
2022-09-17T14:05:38.543Z,74.17
2022-09-17T14:06:55.157Z,74.35
2022-09-17T14:08:38.857Z,73.58
2022-09-17T14:09:56.029Z,73.59
2022-09-17T14:11:40.352Z,73.17
2022-09-17T14:13:26.016Z,72.94
2022-09-17T14:14:53.541Z,73.12
2022-09-17T14:16:47.906Z,72.82
2022-09-17T14:18:35.594Z,73.21
2022-09-17T14:19:56.526Z,73.05
2022-09-17T14:21:25.624Z,73.09
2022-09-17T14:22:45.996Z,73.69
2022-09-17T14:24:21.987Z,73.15
2022-09-17T14:25:51.220Z,73.38
2022-09-17T14:27:32.288Z,72.49
2022-09-17T14:29:01.038Z,72.61
2022-09-17T14:30:20.846Z,72.52
2022-09-17T14:31:37.737Z,71.82
2022-09-17T14:33:08.378Z,71.68
2022-09-17T14:34:27.976Z,71.70
2022-09-17T14:35:47.031Z,71.84
2022-09-17T14:37:04.783Z,71.73
2022-09-17T14:38:28.614Z,71.34
2022-09-17T14:39:46.034Z,71.63
2022-09-17T14:41:08.013Z,71.22
2022-09-17T14:42:32.662Z,71.35
2022-09-17T14:43:51.868Z,71.01
2022-09-17T14:45:18.686Z,71.26
2022-09-17T14:46:37.371Z,71.62
2022-09-17T14:48:26.232Z,71.55
2022-09-17T14:49:47.318Z,71.63
2022-09-17T14:51:30.518Z,72.60
2022-09-17T14:52:49.480Z,72.32
2022-09-17T14:54:13.959Z,72.99
2022-09-17T14:55:29.916Z,72.83
2022-09-17T14:56:52.936Z,72.74
2022-09-17T14:58:32.278Z,72.86
2022-09-17T14:59:49.685Z,72.99
2022-09-17T15:01:05.994Z,72.63
2022-09-17T15:02:34.602Z,72.93
2022-09-17T15:04:21.959Z,72.90
2022-09-17T15:05:51.121Z,73.08
2022-09-17T15:07:08.765Z,73.26
2022-09-17T15:08:30.592Z,73.74
2022-09-17T15:09:45.725Z,73.77
2022-09-17T15:11:12.085Z,73.97
2022-09-17T15:12:29.804Z,74.28
2022-09-17T15:13:51.171Z,74.05
2022-09-17T15:15:05.323Z,74.10
2022-09-17T15:16:27.771Z,74.29
2022-09-17T15:17:46.058Z,74.15
2022-09-17T15:19:04.968Z,74.29
2022-09-17T15:20:31.550Z,74.42
2022-09-17T15:21:50.766Z,74.41
2022-09-17T15:23:10.632Z,74.64
2022-09-17T15:24:33.316Z,74.79
2022-09-17T15:25:58.517Z,75.24
2022-09-17T15:27:23.663Z,75.28
2022-09-17T15:28:46.537Z,75.44
2022-09-17T15:30:12.407Z,75.82
2022-09-17T15:31:37.025Z,76.39
2022-09-17T15:33:00.254Z,76.45
2022-09-17T15:34:17.796Z,76.62
2022-09-17T15:35:37.236Z,76.85
2022-09-17T15:37:18.047Z,77.14
2022-09-17T15:38:41.687Z,77.17
2022-09-17T15:39:56.832Z,77.57
2022-09-17T15:41:33.895Z,77.51
2022-09-17T15:42:50.673Z,77.82
2022-09-17T15:44:28.965Z,78.27
2022-09-17T15:45:46.601Z,78.21
2022-09-17T15:47:52.914Z,78.49
2022-09-17T15:49:35.187Z,78.85
2022-09-17T15:50:57.088Z,78.47
2022-09-17T15:52:31.517Z,78.48
2022-09-17T15:53:53.665Z,78.48
2022-09-17T15:55:30.957Z,78.98
2022-09-17T15:56:57.932Z,79.36
2022-09-17T15:58:24.953Z,79.52
2022-09-17T15:59:45.845Z,79.48
2022-09-17T16:01:54.958Z,80.24
2022-09-17T16:04:09.938Z,80.85
2022-09-17T16:05:56.469Z,80.56
2022-09-17T16:07:32.490Z,80.41
2022-09-17T16:08:56.156Z,80.35
2022-09-17T16:10:18.899Z,80.83
2022-09-17T16:11:34.884Z,80.89
2022-09-17T16:12:56.093Z,80.73
2022-09-17T16:14:15.130Z,81.31
2022-09-17T16:15:35.877Z,81.14
2022-09-17T16:16:59.148Z,81.66
2022-09-17T16:18:17.027Z,81.54
2022-09-17T16:19:37.704Z,81.68
2022-09-17T16:20:58.946Z,81.38
2022-09-17T16:22:17.545Z,82.22
2022-09-17T16:23:40.111Z,82.07
2022-09-17T16:24:57.657Z,82.09
2022-09-17T16:26:21.116Z,82.84
2022-09-17T16:27:45.048Z,83.00
2022-09-17T16:29:07.954Z,82.53
2022-09-17T16:30:31.416Z,81.96
2022-09-17T16:31:49.304Z,82.30
2022-09-17T16:33:07.325Z,82.58
2022-09-17T16:34:27.535Z,82.78
2022-09-17T16:35:48.804Z,83.11
2022-09-17T16:37:07.519Z,83.57
2022-09-17T16:38:28.827Z,83.01
2022-09-17T16:39:46.739Z,83.88
2022-09-17T16:41:07.257Z,84.01
2022-09-17T16:42:31.261Z,84.08
2022-09-17T16:43:46.097Z,84.41
2022-09-17T16:45:09.243Z,84.38
2022-09-17T16:46:26.145Z,84.90
2022-09-17T16:47:48.658Z,84.90
2022-09-17T16:49:07.546Z,84.68
2022-09-17T16:50:26.291Z,85.00
2022-09-17T16:51:46.202Z,84.72
2022-09-17T16:53:06.046Z,84.80
2022-09-17T16:54:25.047Z,85.31
2022-09-17T16:55:47.744Z,84.85
2022-09-17T16:57:05.348Z,84.90
2022-09-17T16:58:26.179Z,84.62
2022-09-17T16:59:45.236Z,85.02
2022-09-17T17:01:07.542Z,84.70
2022-09-17T17:02:30.723Z,84.95
2022-09-17T17:03:49.356Z,85.14
2022-09-17T17:05:11.488Z,85.47
2022-09-17T17:06:25.126Z,85.93
2022-09-17T17:07:46.363Z,85.73
2022-09-17T17:09:02.178Z,85.74
2022-09-17T17:10:20.716Z,86.13
2022-09-17T17:11:36.517Z,86.72
2022-09-17T17:12:50.782Z,86.42
2022-09-17T17:14:06.550Z,86.21
2022-09-17T17:15:21.954Z,86.22
2022-09-17T17:16:41.332Z,86.75
2022-09-17T17:17:56.726Z,86.43
2022-09-17T17:19:15.363Z,87.18
2022-09-17T17:20:39.446Z,86.80
2022-09-17T17:21:55.267Z,87.14
2022-09-17T17:23:16.474Z,87.15
2022-09-17T17:24:35.316Z,86.87
2022-09-17T17:25:58.928Z,87.26